Time;durP1;ratioP1;P1;durP2;ratioP2;P2;SDS_P1;SDS_P2;PMS_P1;PMS_P2;Temp;Humidity;BMP_temperature;BMP_pressure;BME280_temperature;BME280_humidity;BME280_pressure;Samples;Min_cycle;Max_cycle;Signal;HPM_P1;HPM_P2
2021/12/10 00:02:11;;;;;;;7.23;1.60;;;;;;;-145.69;100.00;72206.38;5074914;28;20195;-76
2021/12/10 00:04:45;;;;;;;13.77;1.50;;;;;;;-145.69;100.00;72202.41;5074695;28;20206;-76
2021/12/10 00:07:24;;;;;;;6.97;1.40;;;;;;;-145.69;100.00;72208.38;5075081;28;20213;-76
2021/12/10 00:09:54;;;;;;;9.60;1.40;;;;;;;-145.69;100.00;72194.44;5074389;28;20203;-76
2021/12/10 00:12:28;;;;;;;6.40;1.67;;;;;;;-145.69;100.00;72202.41;5060473;28;20237;-75
2021/12/10 00:15:04;;;;;;;3.83;1.77;;;;;;;-145.69;100.00;72212.34;5054587;28;20317;-75
2021/12/10 00:17:31;;;;;;;10.70;1.43;;;;;;;-145.69;100.00;72232.25;5052550;28;20297;-75
2021/12/10 00:20:09;;;;;;;7.70;1.60;;;;;;;-145.69;100.00;72254.16;5066003;28;20195;-75
2021/12/10 00:22:43;;;;;;;9.50;1.43;;;;;;;-145.69;100.00;72226.28;5074809;28;20205;-75
2021/12/10 00:25:17;;;;;;;5.03;1.30;;;;;;;-145.69;100.00;72222.31;5074756;28;20554;-75
2021/12/10 00:27:56;;;;;;;9.87;1.60;;;;;;;-145.69;100.00;72230.25;5074758;28;20205;-75
2021/12/10 00:30:28;;;;;;;6.20;1.20;;;;;;;-145.69;100.00;72224.28;5074332;28;20289;-75
2021/12/10 00:33:03;;;;;;;12.37;1.50;;;;;;;-145.69;100.00;72206.38;5074288;28;20226;-76
2021/12/10 00:35:36;;;;;;;5.70;1.40;;;;;;;-145.69;100.00;72222.31;5073905;28;20226;-75
2021/12/10 00:38:03;;;;;;;5.20;1.33;;;;;;;-145.69;100.00;72190.47;5074018;28;20203;-76
2021/12/10 00:40:33;;;;;;;7.60;1.20;;;;;;;-145.69;100.00;72186.47;5073280;28;20202;-75
2021/12/10 00:42:59;;;;;;;7.50;1.80;;;;;;;-145.69;100.00;72154.63;5073953;28;20602;-75
2021/12/10 00:45:29;;;;;;;5.17;1.33;;;;;;;-145.69;100.00;72166.56;5072385;28;20194;-76
2021/12/10 00:47:59;;;;;;;9.33;1.60;;;;;;;-145.69;100.00;72166.56;5072915;28;20199;-75
2021/12/10 00:50:32;;;;;;;3.47;1.47;;;;;;;-145.69;100.00;72182.50;5073609;28;20201;-76
2021/12/10 00:52:59;;;;;;;4.47;1.60;;;;;;;-145.69;100.00;72188.47;5073730;28;20241;-75
2021/12/10 00:55:27;;;;;;;5.10;1.63;;;;;;;-145.69;100.00;72198.41;5073413;28;20717;-75
2021/12/10 00:58:00;;;;;;;6.93;1.80;;;;;;;-145.69;100.00;72202.41;5072703;28;20217;-76
2021/12/10 01:00:42;;;;;;;8.87;2.20;;;;;;;-145.69;100.00;72122.78;5073456;28;20190;-75
2021/12/10 01:03:13;;;;;;;5.70;2.03;;;;;;;-145.69;100.00;72112.84;5074131;28;20195;-75
2021/12/10 01:05:57;;;;;;;6.33;2.17;;;;;;;-145.69;100.00;72138.72;5073602;28;20198;-76
2021/12/10 01:08:27;;;;;;;13.47;1.77;;;;;;;-145.69;100.00;72138.72;5073439;28;20207;-76
2021/12/10 01:10:57;;;;;;;4.37;1.63;;;;;;;-145.69;100.00;72152.66;5072384;28;20194;-75
2021/12/10 01:13:28;;;;;;;6.13;1.53;;;;;;;-145.69;100.00;72162.59;5073686;28;20664;-75
2021/12/10 01:16:14;;;;;;;6.57;1.80;;;;;;;-145.69;100.00;72170.56;5072814;28;20719;-75
2021/12/10 01:24:37;;;;;;;5.03;1.90;;;;;;;-145.69;100.00;72192.44;5053310;28;20253;-75
2021/12/10 01:27:13;;;;;;;6.57;1.67;;;;;;;-145.69;100.00;72190.47;5052501;28;20714;-75
2021/12/10 01:29:42;;;;;;;10.20;2.60;;;;;;;-145.69;100.00;72152.66;5060492;28;20191;-75
2021/12/10 01:32:13;;;;;;;13.67;3.87;;;;;;;-145.69;100.00;72122.78;5073560;28;20256;-75
2021/12/10 01:34:42;;;;;;;10.70;2.93;;;;;;;-145.69;100.00;72110.84;5072707;28;20599;-75
2021/12/10 01:37:12;;;;;;;13.53;3.43;;;;;;;-145.69;100.00;72114.81;5073482;28;20294;-75
2021/12/10 01:39:43;;;;;;;13.00;3.27;;;;;;;-145.69;100.00;72112.84;5072878;28;20191;-74
2021/12/10 01:42:18;;;;;;;10.27;3.30;;;;;;;-145.69;100.00;72130.75;5072653;28;20760;-75
2021/12/10 01:44:52;;;;;;;10.80;3.70;;;;;;;-145.69;100.00;72108.84;5073124;28;20198;-75
2021/12/10 01:47:24;;;;;;;9.53;4.13;;;;;;;-145.69;100.00;72118.81;5071903;28;20203;-75
2021/12/10 01:49:51;;;;;;;15.27;3.93;;;;;;;-145.69;100.00;72092.94;5051302;28;20253;-75
2021/12/10 01:52:19;;;;;;;13.43;3.73;;;;;;;-145.69;100.00;72092.94;5052498;28;20207;-76
2021/12/10 01:54:49;;;;;;;14.37;3.90;;;;;;;-145.69;100.00;72082.97;5052779;28;20203;-76
2021/12/10 01:57:20;;;;;;;8.00;3.50;;;;;;;-145.69;100.00;72061.09;5052329;28;20282;-75
2021/12/10 01:59:52;;;;;;;13.63;4.20;;;;;;;-145.69;100.00;72053.13;5072519;28;20202;-75
2021/12/10 02:02:26;;;;;;;12.33;4.27;;;;;;;-145.69;100.00;72043.19;5071118;28;20206;-75
2021/12/10 02:04:53;;;;;;;13.43;4.00;;;;;;;-145.69;100.00;72043.19;5073222;28;20205;-75
2021/12/10 02:07:26;;;;;;;15.37;4.20;;;;;;;-145.69;100.00;72051.16;5068795;28;20211;-75
2021/12/10 02:09:55;;;;;;;15.53;4.60;;;;;;;-145.69;100.00;72051.16;5071362;28;20679;-75
2021/12/10 02:12:22;;;;;;;13.73;4.87;;;;;;;-145.69;100.00;72027.25;5072360;28;20264;-75
2021/12/10 02:14:59;;;;;;;15.80;5.30;;;;;;;-145.69;100.00;72023.28;5072603;28;20202;-75
2021/12/10 02:17:34;;;;;;;17.53;5.33;;;;;;;-145.69;100.00;72017.31;5071848;28;20195;-75
2021/12/10 02:20:05;;;;;;;12.33;5.07;;;;;;;-145.69;100.00;72031.25;5071511;28;20201;-75
2021/12/10 02:22:35;;;;;;;8.83;4.17;;;;;;;-145.69;100.00;72057.13;5072750;28;20657;-75
2021/12/10 02:25:03;;;;;;;17.67;4.37;;;;;;;-145.69;100.00;72043.19;5072602;28;20202;-75
2021/12/10 02:27:33;;;;;;;14.60;5.13;;;;;;;-145.69;100.00;72049.16;5072630;28;20202;-75
2021/12/10 02:30:00;;;;;;;14.90;5.80;;;;;;;-145.69;100.00;72033.22;5072119;28;20281;-76
2021/12/10 02:32:27;;;;;;;17.47;5.33;;;;;;;-145.69;100.00;72011.34;5072038;28;20692;-75
2021/12/10 02:34:55;;;;;;;10.23;4.93;;;;;;;-145.69;100.00;72025.28;5072496;28;20285;-75
2021/12/10 02:37:24;;;;;;;11.73;5.67;;;;;;;-145.69;100.00;72023.28;5072248;28;20198;-76
2021/12/10 02:39:52;;;;;;;10.40;4.90;;;;;;;-145.69;100.00;72023.28;5072968;28;20222;-75
2021/12/10 02:42:22;;;;;;;12.03;5.90;;;;;;;-145.69;100.00;71985.47;5076275;28;20255;-75
2021/12/10 02:44:50;;;;;;;16.50;6.77;;;;;;;-145.69;100.00;71983.47;5075504;28;20198;-76
2021/12/10 02:47:20;;;;;;;11.53;5.67;;;;;;;-145.69;100.00;71979.50;5074773;28;20214;-75
2021/12/10 02:49:48;;;;;;;18.80;6.30;;;;;;;-145.69;100.00;71993.44;5076351;28;20209;-76
2021/12/10 02:52:15;;;;;;;21.20;6.30;;;;;;;-145.69;100.00;71993.44;5075789;28;20194;-75
2021/12/10 02:54:44;;;;;;;16.37;6.57;;;;;;;-145.69;100.00;72011.34;5075886;28;20266;-75
2021/12/10 02:57:21;;;;;;;12.10;5.43;;;;;;;-145.69;100.00;72027.25;5074859;28;20218;-75
2021/12/10 02:59:58;;;;;;;17.23;6.00;;;;;;;-145.69;100.00;72007.34;5075613;28;20202;-75
2021/12/10 03:02:27;;;;;;;16.57;6.37;;;;;;;-145.69;100.00;71971.53;5074195;28;20734;-75
2021/12/10 03:04:53;;;;;;;24.07;7.00;;;;;;;-145.69;100.00;71947.66;5074397;28;20297;-75
2021/12/10 03:07:22;;;;;;;17.37;6.97;;;;;;;-145.69;100.00;71939.69;5076130;28;20272;-75
2021/12/10 03:09:55;;;;;;;18.80;6.07;;;;;;;-145.69;100.00;71915.81;5076188;28;20245;-76
2021/12/10 03:12:23;;;;;;;15.80;6.80;;;;;;;-145.69;100.00;71931.72;5075748;28;20191;-75
2021/12/10 03:14:55;;;;;;;15.60;6.60;;;;;;;-145.69;100.00;71947.66;5075257;28;20244;-76
2021/12/10 03:17:24;;;;;;;18.13;6.37;;;;;;;-145.69;100.00;71959.59;5075729;28;20227;-75
2021/12/10 03:20:01;;;;;;;16.80;6.33;;;;;;;-145.69;100.00;71947.66;5075629;28;20252;-75
2021/12/10 03:22:33;;;;;;;13.33;5.80;;;;;;;-145.69;100.00;71941.69;5075986;28;20283;-76
2021/12/10 03:24:59;;;;;;;18.17;6.03;;;;;;;-145.69;100.00;71931.72;5075393;28;20259;-76
2021/12/10 03:27:29;;;;;;;19.60;6.50;;;;;;;-145.69;100.00;71897.91;5075200;28;20272;-76
2021/12/10 03:29:56;;;;;;;12.60;6.37;;;;;;;-145.69;100.00;71899.88;5075597;28;20665;-75
2021/12/10 03:32:28;;;;;;;18.07;6.70;;;;;;;-145.69;100.00;71885.97;5074720;28;20186;-75
2021/12/10 03:34:57;;;;;;;19.30;7.00;;;;;;;-145.69;100.00;71883.97;5075858;28;20202;-76
2021/12/10 03:37:23;;;;;;;16.67;6.60;;;;;;;-145.69;100.00;71876.00;5075162;28;20233;-75
2021/12/10 03:39:54;;;;;;;15.70;6.10;;;;;;;-145.69;100.00;71870.03;5075449;28;20657;-75
2021/12/10 03:42:24;;;;;;;18.80;6.07;;;;;;;-145.69;100.00;71848.16;5075446;28;20191;-76
2021/12/10 03:44:57;;;;;;;18.07;7.03;;;;;;;-145.69;100.00;71820.28;5075577;28;20208;-76
2021/12/10 03:47:24;;;;;;;15.70;6.20;;;;;;;-145.69;100.00;71816.31;5073666;28;20203;-75
2021/12/10 03:49:50;;;;;;;17.27;5.93;;;;;;;-145.69;100.00;71818.31;5075157;28;20680;-76
2021/12/10 03:52:20;;;;;;;22.23;5.87;;;;;;;-145.69;100.00;71802.38;5073932;28;20649;-75
2021/12/10 03:54:48;;;;;;;11.60;5.23;;;;;;;-145.69;100.00;71812.31;5074708;28;20202;-75
2021/12/10 03:57:18;;;;;;;9.43;4.47;;;;;;;-145.69;100.00;71824.25;5074354;28;20753;-75
2021/12/10 03:59:45;;;;;;;8.30;4.63;;;;;;;-145.69;100.00;71848.16;5074317;28;20206;-75
2021/12/10 04:02:13;;;;;;;13.20;5.23;;;;;;;-145.69;100.00;71870.03;5074614;28;20229;-76
2021/12/10 04:04:43;;;;;;;10.50;5.07;;;;;;;-145.69;100.00;71872.03;5075195;28;20199;-76
2021/12/10 04:07:19;;;;;;;11.47;5.30;;;;;;;-145.69;100.00;71856.09;5074990;28;20213;-74
2021/12/10 04:09:48;;;;;;;10.10;4.93;;;;;;;-145.69;100.00;71864.06;5075338;28;20209;-75
2021/12/10 04:12:22;;;;;;;15.60;5.10;;;;;;;-145.69;100.00;71876.00;5074910;28;20191;-75
2021/12/10 04:14:55;;;;;;;15.80;4.87;;;;;;;-145.69;100.00;71878.00;5075008;28;20199;-75
2021/12/10 04:17:24;;;;;;;9.97;4.87;;;;;;;-145.69;100.00;71895.91;5064384;28;20231;-76
2021/12/10 04:19:54;;;;;;;8.77;4.23;;;;;;;-145.69;100.00;71887.94;5054450;28;20242;-75
2021/12/10 04:22:23;;;;;;;12.73;4.73;;;;;;;-145.69;100.00;71885.97;5071973;28;20206;-75
2021/12/10 04:24:56;;;;;;;8.10;4.33;;;;;;;-145.69;100.00;71881.97;5074558;28;20202;-75
2021/12/10 04:27:22;;;;;;;8.00;4.13;;;;;;;-145.69;100.00;71889.94;5074939;28;20202;-75
2021/12/10 04:29:55;;;;;;;10.20;4.27;;;;;;;-145.69;100.00;71899.88;5074618;28;20206;-76
2021/12/10 04:32:30;;;;;;;11.13;4.67;;;;;;;-145.69;100.00;71925.75;5073426;28;20202;-76
2021/12/10 04:34:57;;;;;;;11.17;4.00;;;;;;;-145.69;100.00;71935.72;5074524;28;20203;-76
2021/12/10 04:37:23;;;;;;;8.87;4.00;;;;;;;-145.69;100.00;71903.88;5074278;28;20682;-75
2021/12/10 04:39:59;;;;;;;13.80;4.47;;;;;;;-145.69;100.00;71876.00;5074131;28;20390;-76
2021/12/10 04:42:30;;;;;;;15.57;5.63;;;;;;;-145.69;100.00;71864.06;5073040;28;20210;-76
2021/12/10 04:45:02;;;;;;;23.83;5.47;;;;;;;-145.69;100.00;71818.31;5074170;28;20248;-76
2021/12/10 04:47:29;;;;;;;19.00;6.07;;;;;;;-145.69;100.00;71808.34;5073185;28;20213;-76
2021/12/10 04:49:56;;;;;;;17.43;5.40;;;;;;;-145.69;100.00;71816.31;5073310;28;20199;-75
2021/12/10 04:52:23;;;;;;;17.40;5.20;;;;;;;-145.69;100.00;71796.41;5072885;28;20260;-75
2021/12/10 04:54:50;;;;;;;13.63;5.10;;;;;;;-145.69;100.00;71780.50;5073648;28;20260;-75
2021/12/10 04:57:16;;;;;;;16.47;5.67;;;;;;;-145.69;100.00;71762.56;5073934;28;20248;-76
2021/12/10 04:59:48;;;;;;;13.33;5.20;;;;;;;-145.69;100.00;71722.78;5073169;28;20199;-75
2021/12/10 05:02:18;;;;;;;15.70;4.93;;;;;;;-145.69;100.00;71734.72;5072647;28;20203;-75
2021/12/10 05:04:47;;;;;;;10.73;5.30;;;;;;;-145.69;100.00;71732.72;5072182;28;20665;-75
2021/12/10 05:07:15;;;;;;;8.73;4.47;;;;;;;-145.69;100.00;71726.75;5073584;28;20205;-75
2021/12/10 05:09:44;;;;;;;12.57;5.13;;;;;;;-145.69;100.00;71740.69;5073751;28;20728;-75
2021/12/10 05:12:11;;;;;;;10.60;4.07;;;;;;;-145.69;100.00;71744.66;5073456;28;20277;-75
2021/12/10 05:14:38;;;;;;;7.93;4.17;;;;;;;-145.69;100.00;71760.59;5073788;28;20203;-75
2021/12/10 05:17:08;;;;;;;9.67;4.53;;;;;;;-145.69;100.00;71758.59;5073746;28;20242;-75
2021/12/10 05:19:40;;;;;;;8.07;3.90;;;;;;;-145.69;100.00;71720.78;5073701;28;20211;-75
2021/12/10 05:22:12;;;;;;;14.57;4.40;;;;;;;-145.69;100.00;71732.72;5072915;28;20209;-75
2021/12/10 05:24:38;;;;;;;7.70;3.47;;;;;;;-145.69;100.00;71740.69;5073218;28;20194;-76
2021/12/10 05:27:07;;;;;;;12.30;4.23;;;;;;;-145.69;100.00;71762.56;5072549;28;20199;-75
2021/12/10 05:29:35;;;;;;;11.17;4.10;;;;;;;-145.69;100.00;71734.72;5073687;28;20252;-76
2021/12/10 05:32:11;;;;;;;9.27;4.33;;;;;;;-145.69;100.00;71746.66;5071312;28;20195;-75
2021/12/10 05:34:40;;;;;;;8.77;3.47;;;;;;;-145.69;100.00;71726.75;5073160;28;20259;-75
2021/12/10 05:37:09;;;;;;;5.90;3.37;;;;;;;-145.69;100.00;71740.69;5072756;28;20631;-76
2021/12/10 05:39:38;;;;;;;10.37;3.70;;;;;;;-145.69;100.00;71746.66;5073372;28;20198;-76
2021/12/10 05:42:09;;;;;;;8.43;3.87;;;;;;;-145.69;100.00;71726.75;5069714;28;20225;-75
2021/12/10 05:44:40;;;;;;;10.83;4.00;;;;;;;-145.69;100.00;71710.84;5071102;28;20289;-75
2021/12/10 05:47:07;;;;;;;11.97;4.40;;;;;;;-145.69;100.00;71704.88;5071696;28;20301;-76
2021/12/10 05:49:36;;;;;;;11.90;5.03;;;;;;;-145.69;100.00;71684.97;5072349;28;20293;-76
2021/12/10 05:52:07;;;;;;;11.33;4.83;;;;;;;-145.69;100.00;71679.00;5073005;28;20644;-75
2021/12/10 05:54:37;;;;;;;14.93;4.70;;;;;;;-145.69;100.00;71679.00;5072940;28;20317;-75
2021/12/10 05:57:06;;;;;;;10.87;4.50;;;;;;;-145.69;100.00;71671.03;5070912;28;20226;-76
2021/12/10 05:59:32;;;;;;;15.27;4.87;;;;;;;-145.69;100.00;71673.03;5070876;28;20199;-75
2021/12/10 06:01:59;;;;;;;10.83;4.83;;;;;;;-145.69;100.00;71663.06;5071502;28;20285;-75
2021/12/10 06:04:33;;;;;;;13.23;4.27;;;;;;;-145.69;100.00;71661.09;5072850;28;20207;-75
2021/12/10 06:07:00;;;;;;;9.73;4.50;;;;;;;-145.69;100.00;71661.09;5072953;28;20657;-75
2021/12/10 06:09:28;;;;;;;13.37;5.20;;;;;;;-145.69;100.00;71667.06;5072699;28;20199;-75
2021/12/10 06:11:59;;;;;;;10.47;4.87;;;;;;;-145.69;100.00;71653.13;5072615;28;20198;-75
2021/12/10 06:14:29;;;;;;;9.27;4.20;;;;;;;-145.69;100.00;71673.03;5071781;28;20198;-75
2021/12/10 06:16:56;;;;;;;12.43;4.50;;;;;;;-145.69;100.00;71665.06;5069576;28;20226;-75
2021/12/10 06:19:28;;;;;;;13.37;4.37;;;;;;;-145.69;100.00;71675.00;5052370;28;20260;-75
2021/12/10 06:21:54;;;;;;;11.37;4.47;;;;;;;-145.69;100.00;71677.00;5063124;28;20206;-75
2021/12/10 06:24:23;;;;;;;8.10;3.87;;;;;;;-145.69;100.00;71684.97;5072942;28;20210;-75
2021/12/10 06:26:52;;;;;;;10.03;4.33;;;;;;;-145.69;100.00;71686.97;5071611;28;20230;-75
2021/12/10 06:29:25;;;;;;;10.47;4.77;;;;;;;-145.69;100.00;71686.97;5072567;28;20204;-75
2021/12/10 06:31:55;;;;;;;11.57;5.60;;;;;;;-145.69;100.00;71671.03;5072578;28;20281;-75
2021/12/10 06:34:24;;;;;;;12.37;4.77;;;;;;;-145.69;100.00;71637.19;5072517;28;20245;-75
2021/12/10 06:36:54;;;;;;;10.20;4.70;;;;;;;-145.69;100.00;71625.25;5072667;28;20218;-74
2021/12/10 06:39:27;;;;;;;13.67;5.97;;;;;;;-145.69;100.00;71581.50;5072299;28;20203;-75
2021/12/10 06:41:57;;;;;;;16.33;5.50;;;;;;;-145.69;100.00;71543.69;5070735;28;20227;-74
2021/12/10 06:44:25;;;;;;;14.87;5.57;;;;;;;-145.69;100.00;71523.78;5072843;28;20203;-75
2021/12/10 06:46:55;;;;;;;11.50;4.47;;;;;;;-145.69;100.00;71505.88;5071583;28;20293;-75
2021/12/10 06:49:26;;;;;;;13.07;5.17;;;;;;;-145.69;100.00;71507.84;5071371;28;20195;-75
2021/12/10 06:51:55;;;;;;;12.83;4.87;;;;;;;-145.69;100.00;71505.88;5071570;28;20281;-75
2021/12/10 06:54:21;;;;;;;11.07;4.00;;;;;;;-145.69;100.00;71505.88;5072054;28;20230;-75
2021/12/10 06:56:52;;;;;;;13.30;4.20;;;;;;;-145.69;100.00;71505.88;5072206;28;20279;-74
2021/12/10 06:59:24;;;;;;;11.53;3.53;;;;;;;-145.69;100.00;71483.97;5071037;28;20221;-75
2021/12/10 07:01:56;;;;;;;7.30;3.47;;;;;;;-145.69;100.00;71470.06;5070572;28;20662;-75
2021/12/10 07:04:25;;;;;;;4.93;2.80;;;;;;;-145.69;100.00;71454.13;5070776;28;20648;-75
2021/12/10 07:06:53;;;;;;;5.47;2.63;;;;;;;-145.69;100.00;71436.22;5072213;28;20653;-75
2021/12/10 07:09:24;;;;;;;5.87;3.20;;;;;;;-145.69;100.00;71438.22;5072629;28;20632;-76
2021/12/10 07:11:54;;;;;;;6.87;2.93;;;;;;;-145.69;100.00;71450.16;5072446;28;20199;-75
2021/12/10 07:14:23;;;;;;;9.17;3.77;;;;;;;-145.69;100.00;71462.09;5071613;28;20199;-75
2021/12/10 07:16:51;;;;;;;9.73;3.80;;;;;;;-145.69;100.00;71474.03;5072196;28;20280;-76
2021/12/10 07:19:18;;;;;;;6.43;3.50;;;;;;;-145.69;100.00;71474.03;5070970;28;20233;-76
2021/12/10 07:21:45;;;;;;;5.53;3.33;;;;;;;-145.69;100.00;71466.06;5071393;28;20199;-75
2021/12/10 07:24:14;;;;;;;9.07;2.87;;;;;;;-145.69;100.00;71464.09;5071950;28;20199;-75
2021/12/10 07:26:42;;;;;;;3.97;2.07;;;;;;;-145.69;100.00;71448.16;5074344;28;20203;-75
2021/12/10 07:29:09;;;;;;;4.23;1.90;;;;;;;-145.69;100.00;71442.19;5075128;28;20195;-75
2021/12/10 07:31:37;;;;;;;5.90;2.30;;;;;;;-145.69;100.00;71450.16;5074221;28;20206;-75
2021/12/10 07:34:05;;;;;;;4.43;2.13;;;;;;;-145.69;100.00;71456.13;5074316;28;20209;-75
2021/12/10 07:36:32;;;;;;;5.27;2.20;;;;;;;-145.69;100.00;71452.16;5075520;28;20213;-75
2021/12/10 07:38:59;;;;;;;6.03;2.20;;;;;;;-145.69;98.31;71436.22;5075123;28;20692;-76
2021/12/10 07:41:26;;;;;;;2.27;1.40;;;;;;;-145.69;94.96;71420.31;5075240;28;20206;-75
2021/12/10 07:43:53;;;;;;;2.93;1.70;;;;;;;-145.69;93.21;71422.28;5075318;28;20213;-75
2021/12/10 07:46:20;;;;;;;4.43;1.63;;;;;;;-145.69;93.39;71406.38;5074796;28;20738;-75
2021/12/10 07:48:48;;;;;;;3.77;1.40;;;;;;;-145.69;89.04;71386.47;5074204;28;20202;-75
2021/12/10 07:51:21;;;;;;;1.47;1.07;;;;;;;-145.69;88.08;71386.47;5074633;28;20203;-75
2021/12/10 07:53:48;;;;;;;2.03;0.97;;;;;;;-145.69;86.58;71382.50;5075364;28;20234;-75
2021/12/10 07:56:16;;;;;;;5.40;1.33;;;;;;;-145.69;87.53;71374.53;5073649;28;20199;-76
2021/12/10 07:58:43;;;;;;;3.63;1.57;;;;;;;-145.69;88.22;71384.47;5074148;28;20222;-75
2021/12/10 08:01:16;;;;;;;2.23;1.40;;;;;;;-145.69;90.20;71396.44;5073515;28;20203;-75
2021/12/10 08:03:43;;;;;;;3.57;1.17;;;;;;;-145.69;86.67;71388.47;5074217;28;20289;-75
2021/12/10 08:06:10;;;;;;;5.50;1.57;;;;;;;-145.69;86.25;71382.50;5073971;28;20228;-75
2021/12/10 08:08:38;;;;;;;5.27;1.50;;;;;;;-145.69;87.56;71388.47;5075012;28;20194;-75
2021/12/10 08:11:06;;;;;;;3.97;1.50;;;;;;;-145.69;84.41;71370.56;5060623;28;20265;-76
2021/12/10 08:13:35;;;;;;;3.47;1.37;;;;;;;-145.69;87.16;71370.56;5075268;28;20198;-75
2021/12/10 08:16:02;;;;;;;2.30;1.20;;;;;;;-145.69;85.80;71362.59;5074464;28;20723;-75
2021/12/10 08:18:28;;;;;;;4.07;1.53;;;;;;;-145.69;89.06;71366.56;5073827;28;20762;-76
2021/12/10 08:20:55;;;;;;;1.40;1.10;;;;;;;-145.69;86.55;71362.59;5074594;28;20203;-75
2021/12/10 08:23:22;;;;;;;3.60;1.37;;;;;;;-145.69;85.63;71358.63;5074047;28;20289;-75
2021/12/10 08:25:50;;;;;;;2.27;1.20;;;;;;;-145.69;84.17;71354.63;5073749;28;20211;-75
2021/12/10 08:28:18;;;;;;;4.57;1.43;;;;;;;-145.69;86.82;71358.63;5074963;28;20207;-76
2021/12/10 08:30:45;;;;;;;3.37;1.20;;;;;;;-145.69;87.18;71348.66;5073975;28;20206;-75
2021/12/10 08:33:12;;;;;;;1.87;1.30;;;;;;;-145.69;82.55;71344.69;5072787;28;20206;-75
2021/12/10 08:35:42;;;;;;;1.37;0.90;;;;;;;-145.69;82.98;71328.78;5073768;28;20285;-76
2021/12/10 08:38:10;;;;;;;1.47;0.77;;;;;;;-145.69;82.30;71320.81;5073411;28;20259;-76
2021/12/10 08:40:40;;;;;;;2.93;1.03;;;;;;;-145.69;82.08;71310.84;5073632;28;20202;-76
2021/12/10 08:43:08;;;;;;;1.27;0.80;;;;;;;-145.69;82.88;71310.84;5073395;28;20249;-75
2021/12/10 08:45:37;;;;;;;1.00;0.70;;;;;;;-145.69;79.80;71294.94;5074428;28;20199;-75
2021/12/10 08:48:04;;;;;;;2.43;1.20;;;;;;;-145.69;79.63;71306.88;5074289;28;20202;-76
2021/12/10 08:50:31;;;;;;;1.97;0.93;;;;;;;-145.69;80.70;71322.81;5073813;28;20210;-75
2021/12/10 08:53:01;;;;;;;1.10;0.90;;;;;;;-145.69;84.48;71310.84;5073543;28;20253;-75
2021/12/10 08:55:29;;;;;;;1.10;0.90;;;;;;;-145.69;85.12;71298.94;5074371;28;20248;-75
2021/12/10 08:57:57;;;;;;;2.00;1.10;;;;;;;-145.69;83.98;71298.94;5074130;28;20230;-75
2021/12/10 09:00:26;;;;;;;2.20;0.90;;;;;;;-145.69;86.12;71306.88;5073458;28;20542;-75
2021/12/10 09:02:55;;;;;;;4.37;1.10;;;;;;;-145.69;88.75;71302.91;5073216;28;20210;-75
2021/12/10 09:05:21;;;;;;;3.20;0.90;;;;;;;-145.69;82.26;71290.97;5073556;28;20565;-76
2021/12/10 09:07:49;;;;;;;1.30;0.70;;;;;;;-145.69;80.13;71271.06;5073829;28;20211;-75
2021/12/10 09:10:18;;;;;;;6.77;2.73;;;;;;;-145.69;81.89;71263.09;5073122;28;20191;-75
2021/12/10 09:12:45;;;;;;;3.90;1.23;;;;;;;-145.69;81.07;71257.13;5072775;28;20206;-75
2021/12/10 09:15:17;;;;;;;3.43;1.80;;;;;;;-145.69;82.70;71217.34;5072082;28;20225;-75
2021/12/10 09:17:46;;;;;;;2.93;0.90;;;;;;;-145.69;80.08;71191.47;5073620;28;20261;-75
2021/12/10 09:20:18;;;;;;;1.87;1.00;;;;;;;-145.69;82.28;71213.38;5072763;28;20206;-75
2021/12/10 09:22:46;;;;;;;1.70;0.90;;;;;;;-145.69;79.57;71213.38;5073780;28;20207;-75
2021/12/10 09:25:13;;;;;;;1.33;0.80;;;;;;;-145.69;77.98;71211.38;5072608;28;20202;-75
2021/12/10 09:27:41;;;;;;;3.00;0.67;;;;;;;-145.69;80.80;71207.38;5073339;28;20214;-75
2021/12/10 09:30:09;;;;;;;3.23;1.13;;;;;;;-145.69;83.42;71203.41;5072175;28;20225;-75
2021/12/10 09:32:37;;;;;;;1.67;0.90;;;;;;;-145.69;81.66;71183.50;5072271;28;20206;-75
2021/12/10 09:35:08;;;;;;;2.13;0.73;;;;;;;-145.69;85.09;71181.53;5073354;28;20206;-75
2021/12/10 09:37:36;;;;;;;1.10;0.80;;;;;;;-145.69;83.31;71181.53;5073265;28;20223;-75
2021/12/10 09:40:05;;;;;;;3.43;0.97;;;;;;;-145.69;87.23;71181.53;5072587;28;20276;-75
2021/12/10 09:42:32;;;;;;;3.23;0.80;;;;;;;-145.69;82.74;71163.63;5073172;28;20608;-75
2021/12/10 09:45:00;;;;;;;1.70;0.83;;;;;;;-145.69;84.43;71143.72;5071635;28;20203;-75
2021/12/10 09:47:29;;;;;;;3.17;1.07;;;;;;;-145.69;84.27;71143.72;5072634;28;20626;-75
2021/12/10 09:49:56;;;;;;;2.73;0.83;;;;;;;-145.69;80.34;71131.78;5071724;28;20198;-75
2021/12/10 09:52:27;;;;;;;1.13;0.90;;;;;;;-145.69;80.93;71135.75;5070468;28;20569;-76
2021/12/10 09:54:53;;;;;;;2.87;0.80;;;;;;;-145.69;82.39;71151.69;5071345;28;20210;-76
2021/12/10 09:57:24;;;;;;;1.17;0.80;;;;;;;-145.69;84.17;71139.75;5072984;28;20199;-76
2021/12/10 09:59:54;;;;;;;1.40;0.90;;;;;;;-145.69;84.86;71133.78;5072299;28;20202;-76
2021/12/10 10:02:22;;;;;;;3.40;1.10;;;;;;;-145.69;87.76;71159.63;5071931;28;20198;-76
2021/12/10 10:04:51;;;;;;;3.17;0.97;;;;;;;-145.69;89.31;71145.72;5062144;28;20221;-76
2021/12/10 10:07:21;;;;;;;1.77;1.00;;;;;;;-145.69;90.67;71143.72;5052830;28;20650;-76
2021/12/10 10:09:52;;;;;;;1.30;0.80;;;;;;;-145.69;85.87;71135.75;5058860;28;20214;-76
2021/12/10 10:12:23;;;;;;;1.73;1.00;;;;;;;-145.69;92.16;71139.75;5072361;28;20198;-76
2021/12/10 10:14:50;;;;;;;5.00;0.90;;;;;;;-145.69;94.31;71127.81;5072854;28;20199;-76
2021/12/10 10:17:19;;;;;;;4.50;1.00;;;;;;;-145.69;90.77;71139.75;5071746;28;20210;-78
2021/12/10 10:19:46;;;;;;;2.03;1.40;;;;;;;-145.69;92.75;71121.84;5072486;28;20226;-77
2021/12/10 10:22:17;;;;;;;3.27;0.93;;;;;;;-145.69;87.29;71123.81;5070931;28;20201;-77
2021/12/10 10:24:44;;;;;;;1.70;1.00;;;;;;;-145.69;91.95;71115.88;5072055;28;20206;-76
2021/12/10 10:27:16;;;;;;;1.97;0.70;;;;;;;-145.69;90.52;71097.97;5072828;28;20248;-77
2021/12/10 10:29:47;;;;;;;4.10;1.30;;;;;;;-145.69;86.04;71092.00;5071388;28;20275;-76
2021/12/10 10:32:17;;;;;;;5.33;1.40;;;;;;;-145.69;87.30;71107.91;5072537;28;20664;-77
2021/12/10 10:34:47;;;;;;;2.93;1.60;;;;;;;-145.69;90.01;71107.91;5071921;28;20202;-78
2021/12/10 10:37:14;;;;;;;1.17;0.87;;;;;;;-145.69;93.96;71131.78;5072296;28;20289;-78
2021/12/10 10:39:43;;;;;;;3.70;1.43;;;;;;;-145.69;94.04;71151.69;5071871;28;20230;-77
2021/12/10 10:42:16;;;;;;;3.10;1.67;;;;;;;-145.69;96.48;71153.66;5071997;28;20198;-76
2021/12/10 10:44:43;;;;;;;2.77;1.60;;;;;;;-145.69;96.86;71157.66;5071983;28;20289;-77
2021/12/10 10:47:10;;;;;;;2.87;1.83;;;;;;;-145.69;100.00;71153.66;5071514;28;20202;-76
2021/12/10 10:49:39;;;;;;;5.30;2.50;;;;;;;-145.69;96.08;71133.78;5071364;28;20244;-77
2021/12/10 10:52:15;;;;;;;3.90;2.20;;;;;;;-145.69;96.16;71105.91;5072221;28;20195;-77
2021/12/10 10:54:41;;;;;;;2.67;1.57;;;;;;;-145.69;99.54;71109.91;5072365;28;20279;-77
2021/12/10 10:57:15;;;;;;;2.43;1.47;;;;;;;-145.69;99.13;71097.97;5072564;28;20198;-76
2021/12/10 10:59:42;;;;;;;3.73;1.70;;;;;;;-145.69;95.80;71080.06;5072037;28;20608;-75
2021/12/10 11:02:11;;;;;;;3.40;1.40;;;;;;;-145.69;100.00;71095.97;5074951;28;20210;-76
2021/12/10 11:04:41;;;;;;;3.27;1.70;;;;;;;-145.69;100.00;71111.88;5075355;28;20272;-76
2021/12/10 11:07:11;;;;;;;3.70;1.70;;;;;;;-145.69;100.00;71115.88;5075421;28;20295;-76
2021/12/10 11:09:45;;;;;;;5.07;1.50;;;;;;;-145.69;100.00;71093.97;5075495;28;20214;-75
2021/12/10 11:12:19;;;;;;;3.30;1.63;;;;;;;-145.69;100.00;71095.97;5076065;28;20542;-76
2021/12/10 11:14:49;;;;;;;2.53;1.90;;;;;;;-145.69;100.00;71105.91;5076336;28;20206;-76
2021/12/10 11:17:19;;;;;;;5.10;2.10;;;;;;;-145.69;100.00;71097.97;5075863;28;20289;-75
2021/12/10 11:19:51;;;;;;;4.50;1.70;;;;;;;-145.69;100.00;71107.91;5075062;28;20437;-76
2021/12/10 11:22:20;;;;;;;3.73;1.60;;;;;;;-145.69;100.00;71092.00;5074249;28;20731;-76
2021/12/10 11:24:51;;;;;;;3.07;1.90;;;;;;;-145.69;100.00;71095.97;5074109;28;20241;-76
2021/12/10 11:27:25;;;;;;;3.60;2.00;;;;;;;-145.69;100.00;71093.97;5075133;28;20286;-76